Time;durP1;ratioP1;P1;durP2;ratioP2;P2;SDS_P1;SDS_P2;PMS_P1;PMS_P2;Temp;Humidity;BMP_temperature;BMP_pressure;BME280_temperature;BME280_humidity;BME280_pressure;Samples;Min_cycle;Max_cycle;Signal;HPM_P1;HPM_P2
2021/08/20 00:07:11;;;;;;;7.70;4.60;;;;;;;16.15;100.00;100173.35;713794;1200;115545;-78
2021/08/20 00:22:13;;;;;;;7.38;4.38;;;;;;;16.00;100.00;100180.41;713753;1200;113992;-78
2021/08/20 00:37:15;;;;;;;7.90;5.10;;;;;;;15.96;100.00;100174.63;713871;1200;114359;-78
2021/08/20 00:52:22;;;;;;;9.00;6.50;;;;;;;15.97;100.00;100173.64;713881;1199;115567;-78
2021/08/20 01:07:25;;;;;;;10.48;6.83;;;;;;;15.85;100.00;100156.48;713741;1202;114085;-77
2021/08/20 01:22:27;;;;;;;13.40;6.65;;;;;;;15.86;100.00;100181.94;713759;1178;113853;-78
2021/08/20 01:37:29;;;;;;;9.55;6.88;;;;;;;15.94;100.00;100158.09;713879;1177;114350;-77
2021/08/20 01:52:31;;;;;;;12.57;7.63;;;;;;;15.99;100.00;100170.81;713701;1176;114914;-80
2021/08/20 02:07:35;;;;;;;9.57;7.03;;;;;;;16.02;100.00;100158.06;713765;1178;114217;-80
2021/08/20 02:22:37;;;;;;;13.45;7.35;;;;;;;16.04;100.00;100152.59;713845;1177;114283;-78
2021/08/20 02:37:39;;;;;;;10.07;8.13;;;;;;;16.01;100.00;100137.89;714125;1177;114645;-77
2021/08/20 02:52:41;;;;;;;14.63;9.80;;;;;;;16.17;100.00;100159.97;714204;1200;114346;-78
2021/08/20 03:07:44;;;;;;;12.35;9.08;;;;;;;16.20;100.00;100165.72;713807;1193;114432;-77
2021/08/20 03:22:46;;;;;;;15.83;10.05;;;;;;;16.21;100.00;100182.44;714048;1203;114607;-78
2021/08/20 03:37:48;;;;;;;12.85;9.63;;;;;;;16.12;100.00;100197.52;714124;1206;114555;-79
2021/08/20 03:52:50;;;;;;;18.15;10.90;;;;;;;16.04;100.00;100203.68;715940;1176;114816;-80
2021/08/20 04:07:53;;;;;;;15.67;10.60;;;;;;;15.95;100.00;100191.48;713790;1202;114652;-78
2021/08/20 04:22:55;;;;;;;17.48;11.50;;;;;;;15.83;100.00;100191.05;713628;1204;115236;-77
2021/08/20 04:37:58;;;;;;;15.40;11.27;;;;;;;15.79;100.00;100206.39;713687;1202;116039;-78
2021/08/20 04:53:00;;;;;;;15.67;11.07;;;;;;;15.85;100.00;100207.58;713684;1197;114789;-80
2021/08/20 05:08:04;;;;;;;15.20;11.48;;;;;;;15.87;100.00;100199.47;713837;1200;114522;-79
2021/08/20 05:23:06;;;;;;;19.83;13.23;;;;;;;15.98;100.00;100214.94;713965;1200;115885;-80
2021/08/20 05:38:09;;;;;;;19.70;14.20;;;;;;;16.10;100.00;100218.88;714013;1203;114986;-80
2021/08/20 05:53:11;;;;;;;18.55;12.55;;;;;;;16.23;100.00;100222.77;714223;1200;114863;-79
2021/08/20 06:08:13;;;;;;;19.85;13.95;;;;;;;16.40;100.00;100236.73;714091;1179;114971;-79
2021/08/20 06:23:15;;;;;;;22.30;14.27;;;;;;;16.44;100.00;100253.92;714052;1200;115737;-79
2021/08/20 06:38:18;;;;;;;21.53;15.13;;;;;;;16.58;100.00;100263.77;714096;1203;114524;-79
2021/08/20 06:53:20;;;;;;;26.73;17.63;;;;;;;16.61;100.00;100267.89;714108;1200;115782;-79
2021/08/20 07:08:22;;;;;;;28.00;18.70;;;;;;;16.83;100.00;100270.74;714398;1200;114565;-77
2021/08/20 07:23:25;;;;;;;23.87;17.00;;;;;;;17.05;100.00;100261.98;714107;1202;115987;-81
2021/08/20 07:38:27;;;;;;;22.50;15.10;;;;;;;17.37;100.00;100283.91;714572;1200;114990;-84
2021/08/20 07:53:30;;;;;;;24.33;16.65;;;;;;;18.42;100.00;100290.06;715229;1199;115763;-80
2021/08/20 08:08:32;;;;;;;20.70;14.50;;;;;;;18.43;100.00;100294.34;715050;1203;114639;-80
2021/08/20 08:23:34;;;;;;;19.50;14.38;;;;;;;18.76;100.00;100307.17;714408;1200;114557;-80
2021/08/20 08:38:40;;;;;;;17.40;13.17;;;;;;;19.27;100.00;100311.57;714235;1200;115013;-80
2021/08/20 08:53:43;;;;;;;17.87;13.03;;;;;;;18.72;100.00;100339.63;714468;1178;114450;-85
2021/08/20 09:09:03;;;;;;;19.40;13.48;;;;;;;18.98;100.00;100335.63;714067;1204;114514;-77
2021/08/20 09:24:39;;;;;;;13.30;10.00;;;;;;;19.71;100.00;100344.23;715607;1200;114946;-87
2021/08/20 09:39:48;;;;;;;15.93;10.50;;;;;;;19.84;100.00;100343.53;717219;1177;114617;-90
2021/08/20 09:54:51;;;;;;;18.10;12.85;;;;;;;19.39;100.00;100341.13;715669;1177;114529;-79
2021/08/20 10:09:55;;;;;;;15.60;9.83;;;;;;;19.82;100.00;100337.58;716091;1200;115199;-77
2021/08/20 10:25:02;;;;;;;12.10;7.83;;;;;;;21.88;100.00;100340.99;720487;1177;114898;-78
2021/08/20 10:40:23;;;;;;;8.98;5.58;;;;;;;22.88;100.00;100346.98;723285;1200;114971;-80
2021/08/20 10:55:29;;;;;;;8.73;5.30;;;;;;;23.53;100.00;100335.20;714286;1200;114185;-78
2021/08/20 11:10:32;;;;;;;8.18;5.20;;;;;;;23.75;100.00;100333.78;714650;1178;114340;-79
2021/08/20 11:25:48;;;;;;;9.38;5.30;;;;;;;22.86;100.00;100323.14;714139;1200;115168;-80
2021/08/20 11:40:51;;;;;;;6.53;4.58;;;;;;;23.88;100.00;100321.28;716119;1203;114202;-79
2021/08/20 11:56:14;;;;;;;6.60;4.60;;;;;;;24.90;96.89;100303.73;714062;1203;114549;-78
2021/08/20 12:11:23;;;;;;;7.17;4.63;;;;;;;23.16;96.61;100317.20;713915;1203;113957;-79
2021/08/20 12:26:28;;;;;;;5.35;4.73;;;;;;;22.68;97.02;100305.14;714932;1203;114243;-84
2021/08/20 12:41:30;;;;;;;6.60;4.60;;;;;;;23.24;99.75;100294.69;715465;1200;113978;-88
2021/08/20 12:57:02;;;;;;;6.33;4.53;;;;;;;24.06;97.15;100285.68;716049;1205;113877;-80
2021/08/20 13:12:05;;;;;;;6.30;4.90;;;;;;;23.47;94.90;100278.02;716513;1178;115321;-83
2021/08/20 13:27:09;;;;;;;8.63;5.00;;;;;;;22.93;96.22;100275.76;714574;1178;114188;-82
2021/08/20 13:42:13;;;;;;;8.28;5.50;;;;;;;22.71;98.05;100283.34;714401;1203;113899;-74
2021/08/20 13:57:15;;;;;;;9.03;5.95;;;;;;;22.50;98.20;100275.64;714213;1199;114542;-74
2021/08/20 14:12:20;;;;;;;6.93;5.33;;;;;;;21.82;99.92;100282.27;714978;1204;113959;-73
2021/08/20 14:27:22;;;;;;;6.43;5.33;;;;;;;21.52;100.00;100290.70;715345;1199;114470;-75
2021/08/20 14:42:26;;;;;;;10.80;7.95;;;;;;;20.45;100.00;100294.89;713902;1205;114649;-75
2021/08/20 14:57:30;;;;;;;7.73;5.65;;;;;;;19.87;100.00;100300.55;714420;1199;115747;-78
2021/08/20 15:12:55;;;;;;;5.83;4.53;;;;;;;19.95;100.00;100276.45;715369;1200;113832;-78
2021/08/20 15:27:54;;;;;;;7.03;5.13;;;;;;;20.21;100.00;100271.44;714387;1200;115587;-77
2021/08/20 15:42:58;;;;;;;10.78;7.00;;;;;;;20.16;100.00;100271.21;714564;1202;114733;-74
2021/08/20 15:58:00;;;;;;;12.40;8.00;;;;;;;19.88;100.00;100272.92;714156;1185;114387;-73
2021/08/20 16:13:04;;;;;;;6.45;4.88;;;;;;;19.58;100.00;100296.25;714403;1184;114324;-74
2021/08/20 16:28:07;;;;;;;7.55;5.30;;;;;;;19.37;100.00;100297.12;714002;1202;114251;-73
2021/08/20 16:43:10;;;;;;;11.20;8.13;;;;;;;19.37;100.00;100310.42;714021;1202;114712;-73
2021/08/20 16:58:12;;;;;;;10.40;7.13;;;;;;;19.06;100.00;100331.02;714388;1205;115821;-75
2021/08/20 17:13:15;;;;;;;8.48;5.28;;;;;;;18.86;100.00;100330.80;714139;1176;114227;-74
2021/08/20 17:28:17;;;;;;;12.03;7.05;;;;;;;18.69;100.00;100345.33;714428;1177;114269;-73
2021/08/20 17:43:20;;;;;;;8.50;6.13;;;;;;;18.46;100.00;100357.73;714078;1200;116197;-74
2021/08/20 17:58:23;;;;;;;23.45;16.93;;;;;;;18.26;100.00;100381.34;714613;1199;114341;-75
2021/08/20 18:13:25;;;;;;;10.78;8.05;;;;;;;18.31;100.00;100380.81;715237;1199;114403;-75
2021/08/20 18:28:27;;;;;;;13.55;9.40;;;;;;;18.25;100.00;100403.62;714801;1200;114477;-74
2021/08/20 18:43:29;;;;;;;15.23;10.13;;;;;;;18.06;100.00;100425.38;714859;1177;114194;-74
2021/08/20 18:58:32;;;;;;;11.15;7.53;;;;;;;17.99;100.00;100435.05;714982;1200;114717;-75
2021/08/20 19:13:34;;;;;;;9.73;6.07;;;;;;;17.82;100.00;100447.64;714531;1200;114264;-73
2021/08/20 19:28:37;;;;;;;12.67;7.67;;;;;;;17.85;100.00;100453.39;714174;1177;114117;-74
2021/08/20 19:43:39;;;;;;;15.60;8.38;;;;;;;17.83;100.00;100455.42;714346;1178;114349;-74
2021/08/20 19:58:41;;;;;;;13.20;7.90;;;;;;;17.71;100.00;100439.09;714226;1200;114573;-74
2021/08/20 20:13:44;;;;;;;15.68;9.28;;;;;;;17.60;100.00;100450.92;714164;1202;114462;-75
2021/08/20 20:28:47;;;;;;;11.68;6.93;;;;;;;17.47;100.00;100453.34;714322;1189;114182;-74
2021/08/20 20:43:49;;;;;;;18.10;10.30;;;;;;;17.61;100.00;100472.99;714314;1200;115187;-74
2021/08/20 20:58:51;;;;;;;10.78;6.95;;;;;;;17.49;100.00;100477.88;716398;1206;114840;-75
2021/08/20 21:13:54;;;;;;;10.40;6.60;;;;;;;17.27;100.00;100479.50;715324;1203;115583;-75
2021/08/20 21:28:56;;;;;;;12.08;6.75;;;;;;;17.16;100.00;100485.20;714302;1180;114363;-75
2021/08/20 21:43:59;;;;;;;7.53;4.83;;;;;;;16.58;100.00;100491.50;714871;1177;113968;-75
2021/08/20 21:59:01;;;;;;;12.98;6.83;;;;;;;16.36;100.00;100505.45;714662;1200;115115;-75
2021/08/20 22:14:06;;;;;;;10.75;6.20;;;;;;;16.39;100.00;100502.45;714266;1177;114096;-78
2021/08/20 22:29:08;;;;;;;14.33;6.93;;;;;;;16.23;100.00;100505.95;714319;1200;114410;-78
2021/08/20 22:44:15;;;;;;;13.68;7.38;;;;;;;16.13;100.00;100500.85;714308;1194;115587;-78
2021/08/20 22:59:18;;;;;;;13.25;8.03;;;;;;;15.97;100.00;100517.56;714409;1176;114661;-78
2021/08/20 23:14:20;;;;;;;12.93;8.73;;;;;;;16.05;100.00;100509.61;714362;1177;114145;-78
2021/08/20 23:29:22;;;;;;;14.10;8.35;;;;;;;15.90;100.00;100509.45;714182;1205;114135;-78
2021/08/20 23:44:24;;;;;;;18.95;8.68;;;;;;;15.86;100.00;100516.03;713725;1202;115690;-73
2021/08/20 23:59:26;;;;;;;11.13;7.85;;;;;;;16.17;100.00;100522.52;713832;1200;115379;-76
